Dunbar, United Kingdom
Current Conditions -  °F | °C
As of 2:50 PM on Saturday 20 Dec 2014 (Local Time) from EGQL Reporting Station
Clear Clear  
Wind Chill:   Ceiling: Unl
Heat Index:   Visibility: 6mi
Dew Point:   Wind: 13mph
Humidity: 76%   Direction: 240°WSW
Pressure: 30.09"   Gusts: NA
Location:  56°N, 2.51°W
Report Text: EGQL 201450Z 24011KT CAVOK 05/01 Q1019 BLU
Loading
Personal Weather Stations






























Interactive Weather Map New forecast layout! Learn more

10-Day Weather Forecast

Advertisements
Track Severe Weather on mobile